Terminal Aerodrome Forecast
Issued by NWS

Home | Current Version | Previous Version | Text Only | Print | Product List | Glossary On
Versions: 1 2 3 4 5 6 7 8 9 10 11 12 13 14 15 16 17 18 19 20 21 22 23 24 25 26
984
FTUS44 KTSA 200832 AAB
TAFBVO
TAF AMD
KBVO 200832Z 2009/2106 15011KT P6SM FEW040 BKN050 BKN070
      TEMPO 2009/2012 22015KT 5SM SHRA BR BKN025
     FM201200 18006KT P6SM OVC040
      TEMPO 2012/2016 5SM -RA BR OVC025
     FM201800 19008KT P6SM SCT150 BKN250
     FM210000 20003KT P6SM BKN250=

USA.gov is the U.S. government's official web portal to all federal, state and local government web resources and services.